x

Halibut Bank (46146) Wave Buoy

2:00 - Fri 29th May 2015 All times are PDT. -7 hours from GMT.

  • Sig Wave height 1.0ft
  • Peak Period 3s
  • Wind
    9mph, 13mph gusts
  • Sea Temp 67°f
  • Luft Temp 66°f
  • Sea Pressure 1015mb
  • Halibut Bank
  • Halibut Bank

More Historic Weather Station data

Upgrade to MSW Pro to gain access to the past 30 days of data for over 8000 Wavebouys and Weather Stations around the globe.

Join Pro

Comparision Forecast

View Surf forecast
   
Fr 05/29 2:00 1ft 3s 9 13 mph 1015mb 67f 66f
1:00 0.3ft 2s 9 11 mph 1015mb 67f 66f
12:00 0.3ft 4s 4
mph
1015.3mb 67f 67f
Do 05/28 11:00 0.3ft 4s 2 4 mph 1015.2mb 67f 67f
10:00 0.3ft 2s 2
mph
1015.3mb 67f 66f
9:00 0.3ft 4s  -  2 mph 1015mb 67f 66f
8:00 0.3ft 5s  -  mph 1015mb 68f 68f
7:00 0.3ft 4s 2
mph
1015.1mb 68f 68f
6:00 0.3ft 2s  -  2 mph 1015.4mb 67f 69f
5:00 0.7ft 4s 2 4 mph 1015.9mb 66f 67f
4:00 0.3ft 3s 2
mph
1016.3mb 67f 67f
3:00 0.7ft 3s 2 4 mph 1016.9mb 66f 66f
2:00 0.7ft 3s 2
mph
1017.6mb 65f 64f
1:00 0.7ft 3s 4
mph
1018.2mb 66f 63f
12:00 0.7ft 3s 4 7 mph 1018.6mb 66f 62f
11:00 1ft 3s 7
mph
1018.8mb 65f 62f
10:00 1ft 3s 9
mph
1018.8mb 65f 61f
9:00 1.3ft 3s 9 11 mph 1019mb 65f 61f
8:00 1.3ft 3s 11
mph
1018.9mb 65f 61f
7:00 1ft 3s 11 13 mph 1018.7mb 65f 61f
6:00 0.7ft 3s 9 11 mph 1018.4mb 65f 62f
5:00 0.3ft 2s  -  2 mph 1018mb 65f 62f
4:00 0.3ft 3s 4
mph
1017.6mb 64f 62f
3:00 0.3ft 3s  -  2 mph 1017.4mb 64f 62f
2:00 0.3ft 3s  -  2 mph 1017mb 65f 63f
1:00 0.3ft 4s 2
mph
1016.8mb 64f 64f
12:00 0.3ft 5s 4
mph
1016.6mb 64f 64f
Mi 05/27 11:00 0.3ft 4s 7 9 mph 1016.5mb 64f 65f
10:00 0.3ft 3s 7 9 mph 1016.4mb 65f 65f
9:00 0.3ft 4s 7 9 mph 1016.1mb 65f 65f
8:00 0.3ft 3s 2
mph
1015.9mb 67f 66f
7:00 0.7ft 4s 2
mph
1015.7mb 68f 66f
6:00 0.3ft 6s 2 4 mph 1015.8mb 67f 66f
5:00 0.3ft 3s 4
mph
1016.2mb 66f 65f
4:00 0.7ft 4s 4
mph
1016.8mb 66f 65f
3:00 0.7ft 3s 4 7 mph 1017.3mb 66f 63f
2:00 0.7ft 3s 4 7 mph 1017.8mb 65f 63f
1:00 0.7ft 3s 2 4 mph 1018.2mb 64f 63f
12:00 0.7ft 3s 2
mph
1018.4mb 63f 62f
11:00 1ft 3s 4 7 mph 1018.4mb 63f 61f
10:00 1ft 3s 9
mph
1018.3mb 62f 60f
9:00 0.7ft 3s 11 13 mph 1018.4mb 62f 60f
8:00 0.7ft 3s 9 11 mph 1018.2mb 62f 61f
7:00 0.3ft 6s 2
mph
1018.1mb 62f 61f
6:00 0.3ft 6s 4
mph
1017.9mb 62f 61f
5:00 0.3ft 3s 4 7 mph 1017.4mb 62f 61f
4:00 0.3ft 2s 2
mph
1017.1mb 62f 61f
3:00 0.3ft 4s 4 7 mph 1016.9mb 61f 60f
2:00 0.3ft 2s 4
mph
1016.6mb 61f 61f
1:00 0.3ft 2s 4 7 mph 1016.6mb 62f 62f
12:00 0.3ft 2s 4 7 mph 1016.5mb 62f 62f
Di 05/26 11:00 0.3ft 4s 7 9 mph 1016.4mb 62f 62f
10:00 0.3ft 14s 9
mph
1016.2mb 62f 62f
9:00 0.7ft 6s 9
mph
1015.6mb 63f 62f
8:00 0.3ft 2s 11 13 mph 1015.6mb 64f 63f
7:00 0.7ft 6s 11 13 mph 1015.5mb 63f 63f
6:00 0.3ft 4s 9 11 mph 1015.7mb 64f 62f
5:00 0.3ft 6s 7
mph
1016.1mb 64f 62f
4:00 0.7ft 3s 4 7 mph 1016.6mb 64f 62f
3:00 0.7ft 3s 2
mph
1016.9mb 63f 62f
2:00 1ft 3s 4
mph
1017.2mb 62f 61f
1:00 1ft 3s 9
mph
1017.5mb 62f 60f
12:00 1.3ft 4s 11 13 mph 1017.7mb 62f 59f
11:00 1.3ft 3s 11 13 mph 1017.7mb 61f 59f
10:00 0.3ft 3s 4
mph
1017.8mb 61f 60f
9:00 0.3ft 3s 2 4 mph 1017.8mb 61f 60f
8:00 0.3ft 4s  -  mph 1017.8mb 61f 59f
7:00 0.3ft 2s 2 4 mph 1017.4mb 61f 59f
6:00 0.3ft 2s  -  2 mph 1017.3mb 61f 58f
5:00 0.3ft 2s 4 7 mph 1017mb 61f 59f
4:00 0.3ft 3s 7 9 mph 1016.7mb 61f 58f
3:00 0.3ft 2s 7 9 mph 1016.5mb 61f 59f
2:00 0.7ft 2s 9 11 mph 1016.4mb 61f 60f
1:00 0.7ft 2s 11
mph
1016.2mb 61f 59f
12:00 0.7ft 2s 13 16 mph 1015.9mb 61f 60f
Mo 05/25 11:00 0.7ft 2s 11 13 mph 1015.7mb 61f 60f
10:00 0.7ft 2s 11 13 mph 1015.7mb 61f 60f
9:00 0.7ft 2s 11
mph
1015.4mb 61f 60f
8:00 0.7ft 2s 9 11 mph 1015.3mb 61f 60f
7:00 0.7ft 6s 11 13 mph 1015.2mb 61f 60f
6:00 0.7ft 2s 11 13 mph 1015.1mb 61f 60f
5:00 0.7ft 2s 11 13 mph 1015.5mb 61f 59f
4:00 0.7ft 2s 11
mph
1015.8mb 61f 58f
3:00 1ft 2s 11 13 mph 1015.9mb 61f 58f
2:00 1ft 2s 11 13 mph 1016.1mb 61f 57f
1:00 1ft 2s 11 13 mph 1016.1mb 61f 57f
12:00 1ft 3s 11 13 mph 1015.9mb 61f 56f
11:00 1ft 3s 9 11 mph 1015.7mb 61f 56f